createdAt,value
2023-03-08T00:00:13.740Z,100.00
2023-03-08T00:03:19.096Z,100.00
2023-03-08T00:06:25.451Z,100.00
2023-03-08T00:09:30.945Z,100.00
2023-03-08T00:12:36.444Z,100.00
2023-03-08T00:15:41.687Z,100.00
2023-03-08T00:18:47.606Z,100.00
2023-03-08T00:21:53.133Z,100.00
2023-03-08T00:24:58.287Z,100.00
2023-03-08T00:28:04.019Z,100.00
2023-03-08T00:31:13.137Z,100.00
2023-03-08T00:34:18.806Z,100.00
2023-03-08T00:37:24.320Z,100.00
2023-03-08T00:40:29.741Z,100.00
2023-03-08T00:43:35.760Z,100.00
2023-03-08T00:46:44.102Z,100.00
2023-03-08T00:49:52.627Z,100.00
2023-03-08T00:52:59.557Z,100.00
2023-03-08T00:56:05.065Z,100.00
2023-03-08T00:59:10.672Z,100.00
2023-03-08T01:02:18.123Z,100.00
2023-03-08T01:05:23.945Z,100.00
2023-03-08T01:08:29.581Z,100.00
2023-03-08T01:11:36.988Z,100.00
2023-03-08T01:14:42.874Z,100.00
2023-03-08T01:17:48.686Z,100.00
2023-03-08T01:21:06.879Z,100.00
2023-03-08T01:24:12.206Z,100.00
2023-03-08T01:27:17.746Z,100.00
2023-03-08T01:30:23.172Z,100.00
2023-03-08T01:33:28.921Z,100.00
2023-03-08T01:36:34.670Z,100.00
2023-03-08T01:39:40.013Z,100.00
2023-03-08T01:42:45.695Z,100.00
2023-03-08T01:46:25.387Z,100.00
2023-03-08T01:49:36.129Z,100.00
2023-03-08T01:52:48.949Z,100.00
2023-03-08T01:55:56.072Z,100.00
2023-03-08T01:59:02.444Z,100.00
2023-03-08T02:02:08.249Z,100.00
2023-03-08T02:05:14.291Z,100.00
2023-03-08T02:08:22.106Z,100.00
2023-03-08T02:11:28.347Z,100.00
2023-03-08T02:14:36.454Z,100.00
2023-03-08T02:17:43.976Z,100.00
2023-03-08T02:20:49.740Z,100.00
2023-03-08T02:23:56.051Z,100.00
2023-03-08T02:27:06.802Z,100.00
2023-03-08T02:30:16.009Z,100.00
2023-03-08T02:33:22.742Z,100.00
2023-03-08T02:36:28.286Z,100.00
2023-03-08T02:39:33.656Z,100.00
2023-03-08T02:42:38.921Z,100.00
2023-03-08T02:45:44.785Z,100.00
2023-03-08T02:48:53.078Z,100.00
2023-03-08T02:51:59.992Z,100.00
2023-03-08T02:55:06.455Z,100.00
2023-03-08T02:58:11.927Z,100.00
2023-03-08T03:01:17.410Z,100.00
2023-03-08T03:04:23.018Z,100.00
2023-03-08T03:07:28.646Z,100.00
2023-03-08T03:13:42.909Z,100.00
2023-03-08T03:16:51.295Z,100.00
2023-03-08T03:19:57.103Z,100.00
2023-03-08T03:23:02.858Z,100.00
2023-03-08T03:26:22.821Z,100.00
2023-03-08T03:29:31.534Z,100.00
2023-03-08T03:32:48.246Z,100.00
2023-03-08T03:35:58.878Z,100.00
2023-03-08T03:39:04.683Z,100.00
2023-03-08T03:42:12.994Z,100.00
2023-03-08T03:45:25.472Z,100.00
2023-03-08T03:48:32.670Z,100.00
2023-03-08T03:51:38.090Z,100.00
2023-03-08T03:55:07.728Z,100.00
2023-03-08T03:58:12.940Z,100.00
2023-03-08T04:01:27.728Z,100.00
2023-03-08T04:04:38.647Z,100.00
2023-03-08T04:07:44.564Z,100.00
2023-03-08T04:10:49.847Z,100.00
2023-03-08T04:13:55.659Z,100.00
2023-03-08T04:17:03.333Z,100.00
2023-03-08T04:20:16.401Z,100.00
2023-03-08T04:23:30.652Z,100.00
2023-03-08T04:26:36.609Z,100.00
2023-03-08T04:29:41.958Z,100.00
2023-03-08T04:32:48.334Z,100.00
2023-03-08T04:35:54.779Z,100.00
2023-03-08T04:39:03.598Z,100.00
2023-03-08T04:42:10.441Z,100.00
2023-03-08T04:45:16.008Z,100.00
2023-03-08T04:48:21.210Z,100.00
2023-03-08T04:51:27.467Z,100.00
2023-03-08T04:54:36.042Z,100.00
2023-03-08T04:57:47.230Z,100.00
2023-03-08T05:00:52.887Z,100.00
2023-03-08T05:03:58.502Z,100.00
2023-03-08T05:07:12.369Z,100.00
2023-03-08T05:10:18.570Z,100.00
2023-03-08T05:13:25.525Z,100.00
2023-03-08T05:16:31.285Z,100.00
2023-03-08T05:19:36.743Z,100.00
2023-03-08T05:22:57.232Z,100.00
2023-03-08T05:26:14.034Z,100.00
2023-03-08T05:29:19.617Z,100.00
2023-03-08T05:32:25.521Z,100.00
2023-03-08T05:35:31.168Z,100.00
2023-03-08T05:38:36.938Z,100.00
2023-03-08T05:41:46.340Z,100.00
2023-03-08T05:44:57.414Z,100.00
2023-03-08T05:48:07.794Z,100.00
2023-03-08T05:51:17.352Z,100.00
2023-03-08T05:54:23.511Z,100.00
2023-03-08T05:57:32.489Z,100.00
2023-03-08T06:00:38.376Z,100.00
2023-03-08T06:03:46.130Z,100.00
2023-03-08T06:06:52.586Z,100.00
2023-03-08T06:10:01.928Z,100.00
2023-03-08T06:13:07.701Z,100.00
2023-03-08T06:16:14.647Z,100.00
2023-03-08T06:19:21.266Z,100.00
2023-03-08T06:22:31.165Z,100.00
2023-03-08T06:25:38.881Z,100.00
2023-03-08T06:28:45.385Z,100.00
2023-03-08T06:31:52.325Z,100.00
2023-03-08T06:35:00.115Z,100.00
2023-03-08T06:38:07.606Z,100.00
2023-03-08T06:41:17.646Z,100.00
2023-03-08T06:44:25.968Z,100.00
2023-03-08T06:47:32.124Z,100.00
2023-03-08T06:50:38.183Z,100.00
2023-03-08T06:53:43.772Z,100.00
2023-03-08T06:56:49.834Z,100.00
2023-03-08T06:59:55.208Z,100.00
2023-03-08T07:03:00.590Z,100.00
2023-03-08T07:06:10.324Z,100.00
2023-03-08T07:09:15.556Z,100.00
2023-03-08T12:29:51.165Z,74.33
2023-03-08T12:32:59.381Z,74.70
2023-03-08T12:36:07.558Z,73.54
2023-03-08T12:39:35.036Z,72.27
2023-03-08T12:42:41.916Z,70.72
2023-03-08T12:46:10.506Z,70.86
2023-03-08T12:49:29.552Z,70.13
2023-03-08T12:52:35.504Z,68.71
2023-03-08T12:55:41.770Z,68.66
2023-03-08T12:59:00.679Z,65.21
2023-03-08T13:02:21.206Z,69.01
2023-03-08T13:05:31.908Z,70.74
2023-03-08T13:08:49.321Z,72.24
2023-03-08T13:12:19.224Z,65.29
2023-03-08T13:15:26.224Z,68.14
2023-03-08T13:18:31.639Z,65.56
2023-03-08T13:21:46.489Z,61.42
2023-03-08T13:25:01.741Z,63.83
2023-03-08T13:28:15.857Z,62.49
2023-03-08T13:31:26.796Z,62.93
2023-03-08T13:34:35.531Z,57.47
2023-03-08T13:37:40.437Z,63.49
2023-03-08T13:40:52.565Z,63.84
2023-03-08T13:44:06.633Z,62.03
2023-03-08T13:47:33.373Z,64.67
2023-03-08T13:50:44.483Z,64.29
2023-03-08T13:53:49.972Z,66.63
2023-03-08T13:57:05.783Z,67.21
2023-03-08T14:00:22.673Z,66.44
2023-03-08T14:03:31.543Z,65.50
2023-03-08T14:06:38.865Z,64.70
2023-03-08T14:09:44.135Z,67.16
2023-03-08T14:12:49.550Z,70.19
2023-03-08T14:15:59.065Z,70.66
2023-03-08T14:19:19.650Z,73.67
2023-03-08T14:22:38.767Z,70.14
2023-03-08T14:25:59.870Z,66.29
2023-03-08T14:29:22.211Z,69.19
2023-03-08T14:32:32.760Z,70.19
2023-03-08T14:35:41.707Z,70.26
2023-03-08T14:38:49.350Z,74.51
2023-03-08T14:41:56.505Z,74.77
2023-03-08T14:45:18.586Z,73.63
2023-03-08T14:48:35.902Z,74.16
2023-03-08T14:51:43.184Z,76.27
2023-03-08T14:54:48.185Z,80.39
2023-03-08T14:57:58.132Z,77.26
2023-03-08T15:01:03.763Z,80.69
2023-03-08T15:04:22.072Z,75.23
2023-03-08T15:07:33.555Z,80.86
2023-03-08T15:10:40.692Z,85.88
2023-03-08T15:13:46.620Z,83.07
2023-03-08T15:16:53.555Z,87.29
2023-03-08T15:19:58.600Z,85.05
2023-03-08T15:23:07.557Z,89.08
2023-03-08T15:26:21.236Z,89.86
2023-03-08T15:29:31.311Z,87.72
2023-03-08T15:32:36.434Z,86.99
2023-03-08T15:35:42.145Z,87.05
2023-03-08T15:38:47.481Z,86.81
2023-03-08T15:41:53.571Z,83.52
2023-03-08T15:44:59.270Z,85.29
2023-03-08T15:48:07.465Z,86.89
2023-03-08T15:51:20.980Z,86.72
2023-03-08T15:54:26.496Z,88.64
2023-03-08T15:57:32.672Z,87.75
2023-03-08T16:00:38.290Z,94.61
2023-03-08T16:03:43.505Z,94.95
2023-03-08T16:06:49.273Z,98.13
2023-03-08T16:09:54.577Z,97.13
2023-03-08T16:13:00.044Z,95.28
2023-03-08T16:16:06.428Z,89.97
2023-03-08T16:19:11.966Z,94.29
2023-03-08T16:22:17.504Z,94.32
2023-03-08T16:25:23.599Z,96.68
2023-03-08T16:28:29.311Z,95.37
2023-03-08T16:31:36.076Z,97.47
2023-03-08T16:34:41.513Z,100.00
2023-03-08T16:37:46.889Z,100.00
2023-03-08T16:41:02.886Z,100.00
2023-03-08T16:44:29.348Z,100.00
2023-03-08T16:47:34.450Z,100.00
2023-03-08T16:50:39.780Z,100.00
2023-03-08T16:53:45.113Z,100.00
2023-03-08T16:56:51.016Z,100.00
2023-03-08T16:59:56.475Z,100.00
2023-03-08T17:03:01.478Z,100.00
2023-03-08T17:06:11.963Z,100.00
2023-03-08T17:09:17.751Z,100.00
2023-03-08T17:12:22.881Z,100.00
2023-03-08T17:15:28.120Z,100.00
2023-03-08T17:18:33.543Z,100.00
2023-03-08T17:21:39.141Z,100.00
2023-03-08T17:24:44.711Z,100.00
2023-03-08T17:27:51.488Z,100.00
2023-03-08T17:30:57.409Z,100.00
2023-03-08T17:34:03.172Z,100.00
2023-03-08T17:37:12.509Z,100.00
2023-03-08T17:40:19.802Z,100.00
2023-03-08T17:43:25.447Z,100.00
2023-03-08T17:46:31.022Z,100.00
2023-03-08T17:49:36.604Z,100.00
2023-03-08T17:52:42.572Z,100.00
2023-03-08T17:55:47.756Z,100.00
2023-03-08T17:58:53.381Z,100.00
2023-03-08T18:01:59.000Z,100.00
2023-03-08T18:05:06.436Z,100.00
2023-03-08T18:08:11.960Z,100.00
2023-03-08T18:11:17.745Z,100.00
2023-03-08T18:14:34.282Z,100.00
2023-03-08T18:17:43.644Z,100.00
2023-03-08T18:20:49.135Z,100.00
2023-03-08T18:23:55.014Z,100.00
2023-03-08T18:27:00.502Z,100.00
2023-03-08T18:30:06.621Z,100.00
2023-03-08T18:33:11.828Z,100.00
2023-03-08T18:36:18.806Z,100.00
2023-03-08T18:39:25.363Z,100.00
2023-03-08T18:42:31.097Z,100.00
2023-03-08T18:45:36.664Z,100.00
2023-03-08T18:48:42.702Z,100.00
2023-03-08T18:51:48.296Z,100.00
2023-03-08T18:54:54.506Z,100.00
2023-03-08T18:57:59.859Z,100.00
2023-03-08T19:01:11.952Z,100.00
2023-03-08T19:04:18.332Z,100.00
2023-03-08T19:07:23.754Z,100.00
2023-03-08T19:10:29.243Z,100.00
2023-03-08T19:13:34.403Z,100.00
2023-03-08T19:16:40.756Z,100.00
2023-03-08T19:19:46.336Z,100.00
2023-03-08T19:22:53.141Z,100.00
2023-03-08T19:26:17.046Z,100.00
2023-03-08T19:29:25.312Z,100.00
2023-03-08T19:32:30.865Z,100.00
2023-03-08T19:35:36.389Z,100.00
2023-03-08T19:38:41.975Z,100.00
2023-03-08T19:41:52.322Z,100.00
2023-03-08T19:44:57.932Z,100.00
2023-03-08T19:48:03.752Z,100.00
2023-03-08T19:51:11.320Z,100.00
2023-03-08T19:54:16.893Z,100.00
2023-03-08T19:57:22.434Z,100.00
2023-03-08T20:00:29.001Z,100.00
2023-03-08T20:03:34.993Z,100.00
2023-03-08T20:06:46.350Z,100.00
2023-03-08T20:09:55.664Z,100.00
2023-03-08T20:13:01.617Z,100.00
2023-03-08T20:16:07.591Z,100.00
2023-03-08T20:19:13.295Z,100.00
2023-03-08T20:22:18.858Z,100.00
2023-03-08T20:25:24.500Z,100.00
2023-03-08T20:28:30.682Z,100.00
2023-03-08T20:31:36.056Z,100.00
2023-03-08T20:34:41.853Z,100.00
2023-03-08T20:37:48.747Z,100.00
2023-03-08T20:41:06.495Z,100.00
2023-03-08T20:44:12.397Z,100.00
2023-03-08T20:47:17.937Z,100.00
2023-03-08T20:50:26.748Z,100.00
2023-03-08T20:53:33.648Z,100.00
2023-03-08T20:56:39.192Z,100.00
2023-03-08T20:59:44.914Z,100.00
2023-03-08T21:02:50.625Z,100.00
2023-03-08T21:05:55.960Z,100.00
2023-03-08T21:09:02.028Z,100.00
2023-03-08T21:12:08.211Z,100.00
2023-03-08T21:15:13.926Z,100.00
2023-03-08T21:18:19.248Z,100.00
2023-03-08T21:21:37.164Z,100.00
2023-03-08T21:24:42.527Z,100.00
2023-03-08T21:27:48.067Z,100.00
2023-03-08T21:30:53.840Z,100.00
2023-03-08T21:34:02.362Z,100.00
2023-03-08T21:37:08.157Z,100.00
2023-03-08T21:40:14.146Z,100.00
2023-03-08T21:43:19.596Z,100.00
2023-03-08T21:46:26.107Z,100.00
2023-03-08T21:49:32.264Z,100.00
2023-03-08T21:52:37.538Z,100.00
2023-03-08T21:55:42.764Z,100.00
2023-03-08T21:58:48.312Z,100.00
2023-03-08T22:01:58.534Z,100.00
2023-03-08T22:05:04.310Z,100.00
2023-03-08T22:08:09.880Z,100.00
2023-03-08T22:11:15.542Z,100.00
2023-03-08T22:14:21.295Z,100.00
2023-03-08T22:17:26.870Z,100.00
2023-03-08T22:20:32.894Z,100.00
2023-03-08T22:23:38.404Z,100.00
2023-03-08T22:26:44.224Z,100.00
2023-03-08T22:29:50.222Z,100.00
2023-03-08T22:32:55.551Z,100.00
2023-03-08T22:36:05.990Z,100.00
2023-03-08T22:39:13.316Z,100.00
2023-03-08T22:42:18.446Z,100.00
2023-03-08T22:45:23.911Z,100.00
2023-03-08T22:48:29.174Z,100.00
2023-03-08T22:51:36.746Z,100.00
2023-03-08T22:54:41.908Z,100.00
2023-03-08T22:57:48.501Z,100.00
2023-03-08T23:00:53.956Z,100.00
2023-03-08T23:04:01.686Z,100.00
2023-03-08T23:07:07.961Z,100.00
2023-03-08T23:10:15.880Z,100.00
2023-03-08T23:13:33.117Z,100.00
2023-03-08T23:16:43.128Z,100.00
2023-03-08T23:19:50.477Z,100.00
2023-03-08T23:22:55.431Z,100.00
2023-03-08T23:26:04.440Z,100.00
2023-03-08T23:29:10.095Z,100.00
2023-03-08T23:32:15.377Z,100.00
2023-03-08T23:35:20.654Z,100.00
2023-03-08T23:38:26.239Z,100.00
2023-03-08T23:41:32.855Z,100.00
2023-03-08T23:44:38.995Z,100.00
2023-03-08T23:47:44.557Z,100.00
2023-03-08T23:50:50.047Z,100.00
2023-03-08T23:54:00.006Z,100.00
2023-03-08T23:57:05.641Z,100.00
